Hovedside
METAR-TAF:

METAR-TAF

Lufthavner :

Karlstad lufthavn

Karlstad, Sverige

breddegrad: 59-26-41N, lengdegrad: 013-20-15E, høyde over havet: 107 m

Gjeldene værobservasjon

Denne rapporten ble laget for 21 minutter siden, klokken 03:20 UTC
Vind 7 kt fra Sør
Temperatur 14°C
Luftfuktighet 100%
Trykk 1003 hPa
Sikt 10 km eller mer

METAR: ESOK 180320Z AUTO 18007KT 9999 FEW012/// BKN087/// 14/14 Q1003

Tid: 05:41 (03:41 UTC)

Varsel

Denne rapporten ble laget for 13 timer og 11 minutter siden, klokken 14:30 UTC
Varsel gyldig fra 17. klokken 15 UTC til 17. klokken 18 UTC
Vind 12 kt fra Sør-sørøst
Sikt 10 km eller mer
Spredte skyer i en høyde av 1000 ft
Brutte skyer i en høyde av 1600 ft
lett regn, duskregn
Midlertidig
fra 17. klokken 15 UTC til 17. klokken 17 UTC
Brutte skyer i en høyde av 800 ft
regn

TAF: ESOK 171430Z 1715/1718 16012KT 9999 -RADZ SCT010 BKN016 TEMPO 1715/1717 RA BKN008

Værobservasjoner og værvarsel for over 4000 flyplasser (METAR- og TAF-rapporter).

Tilgjengelige stasjoner er representert av de røde og gule prikkene på kartet.

Hold musepekeren over prikken for å se navnet på stasjonen.

Klikk så for å se værobservasjoner og -varsler.

For å forandre kartet kan du klikke på den grønne knappen med svart kryss for å zoome inn, på den grønne knappen med strek for å zoome ut, eller på de grønne pilene for å se tilstøtende kart.


METAR-TAF: